Time;durP1;ratioP1;P1;durP2;ratioP2;P2;SDS_P1;SDS_P2;PMS_P1;PMS_P2;Temp;Humidity;BMP_temperature;BMP_pressure;BME280_temperature;BME280_humidity;BME280_pressure;Samples;Min_cycle;Max_cycle;Signal;HPM_P1;HPM_P2
2022/04/24 00:00:07;;;;;;;23.73;15.07;;;9.00;99.90;;;;;;4965140;28;20200;-85
2022/04/24 00:02:33;;;;;;;18.88;14.23;;;8.90;99.90;;;;;;4957090;28;20443;-83
2022/04/24 00:05:00;;;;;;;20.10;13.23;;;;;;;;;;4952067;28;20491;-85
2022/04/24 00:07:26;;;;;;;18.52;13.63;;;8.80;99.90;;;;;;4950314;28;20231;-80
2022/04/24 00:09:51;;;;;;;21.43;15.13;;;8.70;99.90;;;;;;4952170;28;20254;-84
2022/04/24 00:12:18;;;;;;;22.30;14.90;;;8.60;99.90;;;;;;4957444;28;20195;-88
2022/04/24 00:14:45;;;;;;;23.45;15.38;;;8.50;99.90;;;;;;4959262;28;20207;-84
2022/04/24 00:17:12;;;;;;;22.25;15.20;;;8.50;99.90;;;;;;4955431;28;20375;-83
2022/04/24 00:19:38;;;;;;;20.40;13.88;;;8.50;99.90;;;;;;4960469;28;20191;-83
2022/04/24 00:22:03;;;;;;;19.37;14.13;;;8.50;99.90;;;;;;4974513;28;20193;-81
2022/04/24 00:24:29;;;;;;;24.37;14.77;;;8.70;99.90;;;;;;4967303;28;20196;-83
2022/04/24 00:26:54;;;;;;;18.93;14.77;;;8.80;99.90;;;;;;4967995;28;20192;-82
2022/04/24 00:29:21;;;;;;;21.27;14.23;;;9.00;99.90;;;;;;4956541;28;20224;-81
2022/04/24 00:31:47;;;;;;;19.42;13.35;;;9.10;99.90;;;;;;4951298;28;20191;-85
2022/04/24 00:34:13;;;;;;;20.43;13.60;;;;;;;;;;4954997;28;20192;-85
2022/04/24 00:36:38;;;;;;;20.80;13.27;;;9.10;99.90;;;;;;4956358;28;20510;-84
2022/04/24 00:39:04;;;;;;;23.57;14.27;;;9.00;99.90;;;;;;4957795;28;21232;-87
2022/04/24 00:41:30;;;;;;;21.13;14.33;;;;;;;;;;4951840;28;20184;-83
2022/04/24 00:43:56;;;;;;;20.15;14.52;;;8.80;99.90;;;;;;4950570;28;20455;-85
2022/04/24 00:46:38;;;;;;;21.27;13.77;;;8.70;99.90;;;;;;4951881;28;20266;-82
2022/04/24 00:49:04;;;;;;;19.23;13.23;;;8.80;99.90;;;;;;4947635;28;20219;-85
2022/04/24 00:51:30;;;;;;;19.87;13.77;;;8.80;99.90;;;;;;4949862;28;20184;-83
2022/04/24 00:53:59;;;;;;;19.63;13.80;;;8.70;99.90;;;;;;4955224;28;20188;-86
2022/04/24 00:56:30;;;;;;;19.90;13.73;;;8.70;99.90;;;;;;4959165;28;20176;-84
2022/04/24 00:58:57;;;;;;;18.40;12.63;;;8.90;99.90;;;;;;4959797;28;20255;-84
2022/04/24 01:01:23;;;;;;;20.35;12.88;;;;;;;;;;4949516;28;20204;-83
2022/04/24 01:03:48;;;;;;;20.87;14.37;;;9.20;99.90;;;;;;4954858;28;20192;-85
2022/04/24 01:06:14;;;;;;;19.77;13.23;;;9.30;99.90;;;;;;4955714;28;21038;-83
2022/04/24 01:08:40;;;;;;;17.33;12.23;;;9.40;99.90;;;;;;4952703;28;20216;-84
2022/04/24 01:11:05;;;;;;;16.93;13.23;;;10.40;99.90;;;;;;4947932;28;20320;-83
2022/04/24 01:13:31;;;;;;;19.13;13.43;;;9.30;99.90;;;;;;4955291;28;20413;-83
2022/04/24 01:15:57;;;;;;;23.30;14.00;;;9.50;99.90;;;;;;4957687;28;20236;-83
2022/04/24 01:18:24;;;;;;;19.05;13.50;;;9.50;99.90;;;;;;4949756;28;20327;-88
2022/04/24 01:20:50;;;;;;;17.48;13.23;;;9.40;99.90;;;;;;4950406;28;20196;-85
2022/04/24 01:23:15;;;;;;;18.70;13.53;;;9.70;99.90;;;;;;4971925;28;20195;-81
2022/04/24 01:25:41;;;;;;;17.83;13.00;;;9.70;99.90;;;;;;4971255;28;20219;-86
2022/04/24 01:28:08;;;;;;;19.97;12.80;;;9.80;99.90;;;;;;4954395;28;20208;-83
2022/04/24 01:30:34;;;;;;;17.48;11.90;;;9.90;99.90;;;;;;4950381;28;20184;-86
2022/04/24 01:33:00;;;;;;;17.27;13.30;;;9.90;99.90;;;;;;4955956;28;20232;-85
2022/04/24 01:35:26;;;;;;;16.10;11.37;;;;;;;;;;4953541;28;20515;-85
2022/04/24 01:37:55;;;;;;;17.80;12.87;;;;;;;;;;4955420;28;20466;-85
2022/04/24 01:40:21;;;;;;;17.60;11.93;;;10.00;99.90;;;;;;4956154;28;20447;-84
2022/04/24 01:42:46;;;;;;;17.27;13.13;;;;;;;;;;4973780;28;20280;-80
2022/04/24 01:45:12;;;;;;;20.50;13.10;;;;;;;;;;4968985;28;20252;-82
2022/04/24 01:47:38;;;;;;;19.83;14.23;;;10.20;99.90;;;;;;4971276;28;20833;-85
2022/04/24 01:50:04;;;;;;;19.50;13.17;;;10.20;99.90;;;;;;4945689;28;20520;-87
2022/04/24 01:52:29;;;;;;;19.37;12.77;;;10.30;99.90;;;;;;4958088;28;20177;-87
2022/04/24 01:54:55;;;;;;;21.27;13.73;;;10.00;99.90;;;;;;4958713;28;20440;-84
2022/04/24 01:57:20;;;;;;;16.27;12.23;;;10.20;99.90;;;;;;4950103;28;20192;-83
2022/04/24 01:59:46;;;;;;;19.93;13.47;;;10.10;99.90;;;;;;4954523;28;20192;-85
2022/04/24 02:02:12;;;;;;;17.70;12.70;;;;;;;;;;4948066;28;20190;-83
2022/04/24 02:04:37;;;;;;;19.60;13.20;;;10.10;99.90;;;;;;4944850;28;20220;-86
2022/04/24 02:07:04;;;;;;;17.37;11.70;;;10.10;99.90;;;;;;4955466;28;20508;-86
2022/04/24 02:09:30;;;;;;;16.77;11.95;;;10.10;99.90;;;;;;4959521;28;20216;-85
2022/04/24 02:11:55;;;;;;;17.77;12.30;;;10.10;99.90;;;;;;4961832;28;20192;-88
2022/04/24 02:14:21;;;;;;;19.80;12.47;;;;;;;;;;4958916;28;20207;-86
2022/04/24 02:16:46;;;;;;;19.50;12.33;;;9.80;99.90;;;;;;4952912;28;20192;-86
2022/04/24 02:19:12;;;;;;;22.90;13.80;;;;;;;;;;4952724;28;20464;-84
2022/04/24 02:21:38;;;;;;;19.13;13.17;;;;;;;;;;4954414;28;20224;-85
2022/04/24 02:24:04;;;;;;;19.70;13.00;;;9.70;99.90;;;;;;4954776;28;20440;-82
2022/04/24 02:26:29;;;;;;;17.03;12.20;;;9.80;99.90;;;;;;4955541;28;20444;-83
2022/04/24 02:28:55;;;;;;;19.00;12.47;;;9.70;99.90;;;;;;4951680;28;20260;-84
2022/04/24 02:31:21;;;;;;;16.03;12.20;;;9.80;99.90;;;;;;4954120;28;20219;-89
2022/04/24 02:33:46;;;;;;;16.20;12.63;;;;;;;;;;4956512;28;20588;-86
2022/04/24 02:36:12;;;;;;;16.63;11.70;;;;;;;;;;4954922;28;20185;-87
2022/04/24 02:38:38;;;;;;;17.07;11.70;;;9.50;99.90;;;;;;4956081;28;20460;-88
2022/04/24 02:41:03;;;;;;;18.73;11.57;;;9.40;99.90;;;;;;4955245;28;20460;-84
2022/04/24 02:43:29;;;;;;;16.17;12.57;;;9.60;99.90;;;;;;4953203;28;20183;-83
2022/04/24 02:45:54;;;;;;;22.47;13.10;;;9.80;99.90;;;;;;4954025;28;20315;-89
2022/04/24 02:48:22;;;;;;;18.13;13.23;;;9.60;99.90;;;;;;4964842;28;20223;-82
2022/04/24 02:50:47;;;;;;;19.88;13.25;;;9.60;99.90;;;;;;4970290;28;20192;-84
2022/04/24 02:53:15;;;;;;;16.70;12.30;;;;;;;;;;4957904;28;20288;-85
2022/04/24 02:55:40;;;;;;;19.48;13.20;;;9.30;99.90;;;;;;4954414;28;20185;-83
2022/04/24 02:58:06;;;;;;;20.30;13.63;;;;;;;;;;4947672;28;20315;-87
2022/04/24 03:00:49;;;;;;;18.15;12.95;;;9.30;99.90;;;;;;4952853;28;20263;-84
2022/04/24 03:03:18;;;;;;;18.90;12.85;;;11.50;99.90;;;;;;4953003;28;20188;-86
2022/04/24 03:05:45;;;;;;;21.15;14.82;;;9.20;99.90;;;;;;4969522;28;20191;-82
2022/04/24 03:08:11;;;;;;;21.35;14.50;;;8.90;99.90;;;;;;4970769;28;20236;-85
2022/04/24 03:10:37;;;;;;;22.80;14.75;;;9.20;99.90;;;;;;4955257;28;20416;-85
2022/04/24 03:13:02;;;;;;;20.60;13.53;;;9.20;99.90;;;;;;4956759;28;20687;-87
2022/04/24 03:15:28;;;;;;;18.90;13.87;;;9.30;99.90;;;;;;4953025;28;20195;-85
2022/04/24 03:17:54;;;;;;;21.57;15.70;;;9.40;99.90;;;;;;4954792;28;20742;-85
2022/04/24 03:20:21;;;;;;;22.30;14.68;;;9.40;99.90;;;;;;4956428;28;20525;-86
2022/04/24 03:22:46;;;;;;;27.33;15.20;;;9.30;99.90;;;;;;4953053;28;20351;-86
2022/04/24 03:25:12;;;;;;;22.70;14.80;;;9.20;99.90;;;;;;4950050;28;20212;-87
2022/04/24 03:27:38;;;;;;;19.60;14.70;;;9.00;99.90;;;;;;4951263;28;20208;-83
2022/04/24 03:30:05;;;;;;;28.55;17.17;;;9.00;99.90;;;;;;4947087;28;20211;-86
2022/04/24 03:32:32;;;;;;;23.10;15.98;;;8.90;99.90;;;;;;4948261;28;20675;-86
2022/04/24 03:34:58;;;;;;;23.48;15.88;;;8.90;99.90;;;;;;4955871;28;20184;-84
2022/04/24 03:37:23;;;;;;;26.10;17.37;;;8.80;99.90;;;;;;4969821;28;20271;-82
2022/04/24 03:39:49;;;;;;;25.30;16.77;;;8.80;99.90;;;;;;4952589;28;20442;-86
2022/04/24 03:42:14;;;;;;;24.30;16.90;;;8.70;99.90;;;;;;4958235;28;20200;-86
2022/04/24 03:44:40;;;;;;;28.80;16.37;;;8.70;99.90;;;;;;4957051;28;20665;-85
2022/04/24 03:47:06;;;;;;;20.27;14.53;;;8.70;99.90;;;;;;4958408;28;20275;-86
2022/04/24 03:49:32;;;;;;;25.35;15.45;;;;;;;;;;4950116;28;20270;-86
2022/04/24 03:51:58;;;;;;;24.73;16.23;;;8.60;99.90;;;;;;4957790;28;20188;-82
2022/04/24 03:54:24;;;;;;;19.57;15.03;;;;;;;;;;4974429;28;20180;-85
2022/04/24 03:56:49;;;;;;;27.00;18.08;;;8.60;99.90;;;;;;4956288;28;20208;-87
2022/04/24 03:59:15;;;;;;;24.63;15.57;;;10.00;99.90;;;;;;4957846;28;20236;-83
2022/04/24 04:01:41;;;;;;;24.80;17.60;;;8.50;99.90;;;;;;4959524;28;20199;-82
2022/04/24 04:04:07;;;;;;;31.80;16.50;;;8.60;99.90;;;;;;4977102;28;20211;-85
2022/04/24 04:06:32;;;;;;;24.83;15.70;;;8.60;99.90;;;;;;4967335;28;20189;-84
2022/04/24 04:08:58;;;;;;;21.27;14.07;;;8.40;99.90;;;;;;4970501;28;20224;-86
2022/04/24 04:11:24;;;;;;;27.87;18.00;;;;;;;;;;4954043;28;20215;-87
2022/04/24 04:13:50;;;;;;;29.30;18.03;;;;;;;;;;4969594;28;20252;-83
2022/04/24 04:16:16;;;;;;;29.50;17.50;;;;;;;;;;4975370;28;20443;-85
2022/04/24 04:18:41;;;;;;;23.60;17.10;;;;;;;;;;4966290;28;20483;-83
2022/04/24 04:21:07;;;;;;;31.43;18.63;;;;;;;;;;4963352;28;20442;-86
2022/04/24 04:23:33;;;;;;;31.33;20.70;;;;;;;;;;4962657;28;20459;-87
2022/04/24 04:25:59;;;;;;;32.30;18.70;;;;;;;;;;4962930;28;20474;-84
2022/04/24 04:28:25;;;;;;;31.50;20.00;;;8.40;99.90;;;;;;4991516;28;20487;-84
2022/04/24 04:30:51;;;;;;;27.07;19.43;;;8.30;99.90;;;;;;4964880;28;20197;-84
2022/04/24 04:33:16;;;;;;;31.47;20.57;;;8.40;99.90;;;;;;4957347;28;20300;-86
2022/04/24 04:35:42;;;;;;;28.47;17.87;;;9.90;99.90;;;;;;4955052;28;20653;-85
2022/04/24 04:38:08;;;;;;;30.50;18.97;;;;;;;;;;4954100;28;20711;-86
2022/04/24 04:40:33;;;;;;;31.25;21.92;;;8.70;99.90;;;;;;4953319;28;20834;-86
2022/04/24 04:42:59;;;;;;;30.33;19.53;;;8.80;99.90;;;;;;4959868;28;20180;-86
2022/04/24 04:45:25;;;;;;;31.73;20.50;;;8.70;99.90;;;;;;4954716;28;20248;-87
2022/04/24 04:47:51;;;;;;;30.30;20.37;;;8.70;99.90;;;;;;4950685;28;20289;-86
2022/04/24 04:50:16;;;;;;;27.75;18.40;;;8.70;99.90;;;;;;4950050;28;20208;-84
2022/04/24 04:52:42;;;;;;;33.43;19.10;;;8.70;99.90;;;;;;4951743;28;20246;-84
2022/04/24 04:55:08;;;;;;;27.33;17.17;;;8.70;99.90;;;;;;4950649;28;20189;-81
2022/04/24 04:57:34;;;;;;;28.30;18.30;;;8.60;99.90;;;;;;4950043;28;20692;-83
2022/04/24 04:59:59;;;;;;;32.30;17.37;;;8.70;99.90;;;;;;4952763;28;20203;-87
2022/04/24 05:02:25;;;;;;;28.20;18.00;;;8.60;99.90;;;;;;4959146;28;20455;-86
2022/04/24 05:04:50;;;;;;;25.67;17.97;;;8.70;99.90;;;;;;4975492;28;20192;-85
2022/04/24 05:07:16;;;;;;;26.83;18.30;;;8.80;99.90;;;;;;4971005;28;20200;-84
2022/04/24 05:09:42;;;;;;;32.23;18.70;;;;;;;;;;4961370;28;20216;-86
2022/04/24 05:12:08;;;;;;;29.47;19.83;;;8.80;99.90;;;;;;4957547;28;20693;-87
2022/04/24 05:14:34;;;;;;;30.20;19.70;;;8.80;99.90;;;;;;4953505;28;20475;-89
2022/04/24 05:17:00;;;;;;;32.20;20.20;;;8.70;99.90;;;;;;4947415;28;20690;-85
2022/04/24 05:19:25;;;;;;;26.70;18.50;;;8.80;99.90;;;;;;4961038;28;20703;-84
2022/04/24 05:21:54;;;;;;;28.27;18.60;;;8.80;99.90;;;;;;4960455;28;20258;-86
2022/04/24 05:24:20;;;;;;;28.17;18.90;;;;;;;;;;4961382;28;20483;-88
2022/04/24 05:26:46;;;;;;;35.40;21.90;;;8.90;99.90;;;;;;4950276;28;20184;-87
2022/04/24 05:29:12;;;;;;;34.33;20.53;;;9.00;99.90;;;;;;4942747;28;20971;-86
2022/04/24 05:31:38;;;;;;;30.95;18.58;;;9.00;99.90;;;;;;4944949;28;20208;-87
2022/04/24 05:34:05;;;;;;;35.60;19.57;;;9.10;99.90;;;;;;4950131;28;20543;-89
2022/04/24 05:36:30;;;;;;;36.63;20.52;;;9.10;99.90;;;;;;4961267;28;20689;-89
2022/04/24 05:38:56;;;;;;;26.57;17.50;;;9.20;99.90;;;;;;4959430;28;20216;-86
2022/04/24 05:41:22;;;;;;;32.63;19.57;;;;;;;;;;4976397;28;20189;-84
2022/04/24 05:43:48;;;;;;;29.10;19.20;;;8.80;99.90;;;;;;4962194;28;20228;-88
2022/04/24 05:46:14;;;;;;;34.42;20.90;;;;;;;;;;4950044;28;20501;-85
2022/04/24 05:48:40;;;;;;;31.03;20.10;;;8.80;99.90;;;;;;4944330;28;20984;-83
2022/04/24 05:51:06;;;;;;;30.53;18.17;;;;;;;;;;4974725;28;20447;-84
2022/04/24 05:53:31;;;;;;;31.80;19.10;;;8.80;99.90;;;;;;4953356;28;20199;-87
2022/04/24 05:55:57;;;;;;;31.40;20.60;;;8.70;99.90;;;;;;4946313;28;20444;-87
2022/04/24 05:58:23;;;;;;;29.47;19.47;;;8.80;99.90;;;;;;4949776;28;20212;-88
2022/04/24 06:00:48;;;;;;;31.33;19.27;;;8.70;99.90;;;;;;4951477;28;20203;-87
2022/04/24 06:03:14;;;;;;;30.07;19.40;;;8.60;99.90;;;;;;4950605;28;20439;-87
2022/04/24 06:05:39;;;;;;;26.77;19.30;;;8.50;99.90;;;;;;4946748;28;20184;-87
2022/04/24 06:08:05;;;;;;;30.10;19.20;;;8.60;99.90;;;;;;4949608;28;20200;-88
2022/04/24 06:10:31;;;;;;;33.13;18.10;;;8.60;99.90;;;;;;4951393;28;20236;-88
2022/04/24 06:12:57;;;;;;;28.53;18.13;;;8.40;99.90;;;;;;4948844;28;20313;-87
2022/04/24 06:15:25;;;;;;;29.45;18.05;;;8.60;99.90;;;;;;4942281;28;20223;-86
2022/04/24 06:17:52;;;;;;;31.65;20.40;;;8.60;99.90;;;;;;4942233;28;20279;-84
2022/04/24 06:20:19;;;;;;;31.95;20.58;;;8.60;99.90;;;;;;4944929;28;20184;-86
2022/04/24 06:22:46;;;;;;;29.17;18.55;;;8.70;99.90;;;;;;4946581;28;20688;-87
2022/04/24 06:25:25;;;;;;;31.27;20.75;;;8.70;99.90;;;;;;4945485;28;20188;-84
2022/04/24 06:27:52;;;;;;;35.25;20.60;;;8.80;99.90;;;;;;4938010;28;20302;-87
2022/04/24 06:30:21;;;;;;;28.80;20.15;;;8.80;99.90;;;;;;4947027;28;20223;-87
2022/04/24 06:32:47;;;;;;;29.65;18.98;;;9.00;99.90;;;;;;4946225;28;20185;-87
2022/04/24 06:35:14;;;;;;;33.07;20.37;;;9.30;99.90;;;;;;4939769;28;20191;-87
2022/04/24 06:37:42;;;;;;;32.55;20.63;;;9.10;99.90;;;;;;4935983;28;20296;-88
2022/04/24 06:40:09;;;;;;;26.13;19.60;;;9.00;99.90;;;;;;4944642;28;20287;-87
2022/04/24 06:42:46;;;;;;;21.40;14.68;;;9.00;99.90;;;;;;4964454;28;20208;-88
2022/04/24 06:45:11;;;;;;;18.30;11.95;;;9.00;99.90;;;;;;4946870;28;20214;-88
2022/04/24 06:47:37;;;;;;;11.80;7.93;;;8.90;99.90;;;;;;4946407;28;20685;-87
2022/04/24 06:50:03;;;;;;;9.93;7.10;;;8.80;99.90;;;;;;4945163;28;20385;-86
2022/04/24 06:52:28;;;;;;;8.83;5.23;;;8.90;99.90;;;;;;4942271;28;20270;-85
2022/04/24 06:54:54;;;;;;;9.47;3.90;;;;;;;;;;4946306;28;20188;-88
2022/04/24 06:57:20;;;;;;;7.20;4.93;;;8.80;99.90;;;;;;4962222;28;20191;-89
2022/04/24 06:59:46;;;;;;;3.60;2.17;;;;;;;;;;4945646;28;20444;-87
2022/04/24 07:02:11;;;;;;;2.37;1.13;;;8.70;99.90;;;;;;4946685;28;20219;-88
2022/04/24 07:04:37;;;;;;;2.20;1.37;;;8.60;99.90;;;;;;4947933;28;20472;-85
2022/04/24 07:07:03;;;;;;;1.57;1.00;;;8.60;99.90;;;;;;4960749;28;20180;-82
2022/04/24 07:09:29;;;;;;;2.63;1.00;;;8.60;99.90;;;;;;4972132;28;20500;-84
2022/04/24 07:11:54;;;;;;;0.73;0.68;;;8.80;99.90;;;;;;4956444;28;20275;-84
2022/04/24 07:14:20;;;;;;;1.90;1.43;;;8.80;99.90;;;;;;4967649;28;20184;-87
2022/04/24 07:16:45;;;;;;;3.10;1.50;;;8.60;99.90;;;;;;4959713;28;20289;-86
2022/04/24 07:19:12;;;;;;;3.43;0.80;;;8.70;99.90;;;;;;4950795;28;20204;-86
2022/04/24 07:21:38;;;;;;;1.45;0.70;;;8.70;99.90;;;;;;4952432;28;20176;-83
2022/04/24 07:24:03;;;;;;;0.70;0.70;;;8.80;99.90;;;;;;4952942;28;20187;-85
2022/04/24 07:26:29;;;;;;;0.57;0.43;;;8.70;99.90;;;;;;4954335;28;20191;-85
2022/04/24 07:28:55;;;;;;;1.47;0.63;;;;;;;;;;4955247;28;20479;-87
2022/04/24 07:31:21;;;;;;;0.50;0.30;;;;;;;;;;4968515;28;21062;-88
2022/04/24 07:33:48;;;;;;;0.90;0.60;;;;;;;;;;4957405;28;20982;-86
2022/04/24 07:36:13;;;;;;;0.70;0.70;;;8.40;99.90;;;;;;4957308;28;21003;-88
2022/04/24 07:38:39;;;;;;;1.40;0.90;;;;;;;;;;4953344;28;20212;-82
2022/04/24 07:41:05;;;;;;;0.60;0.60;;;;;;;;;;4948442;28;20267;-87
2022/04/24 07:43:33;;;;;;;0.55;0.50;;;8.40;99.90;;;;;;4956184;28;20188;-85
2022/04/24 07:45:58;;;;;;;1.23;0.70;;;7.40;99.90;;;;;;4970725;28;20188;-87
2022/04/24 07:48:25;;;;;;;0.60;0.60;;;8.50;99.90;;;;;;4952400;28;20216;-86
2022/04/24 07:50:52;;;;;;;2.70;0.60;;;;;;;;;;4950549;28;20239;-87
2022/04/24 07:53:18;;;;;;;0.68;0.60;;;8.50;99.90;;;;;;4954036;28;20196;-84
2022/04/24 07:55:46;;;;;;;0.70;0.55;;;8.50;99.90;;;;;;4962242;28;20248;-87
2022/04/24 07:58:13;;;;;;;1.00;0.60;;;8.50;99.90;;;;;;4953555;28;20287;-86
2022/04/24 08:00:39;;;;;;;0.98;0.68;;;8.50;99.90;;;;;;4961330;28;20199;-84
2022/04/24 08:03:10;;;;;;;0.65;0.57;;;8.50;99.90;;;;;;4965308;28;20219;-85
2022/04/24 08:05:41;;;;;;;0.88;0.65;;;8.50;99.90;;;;;;4977139;28;20219;-88
2022/04/24 08:08:14;;;;;;;0.50;0.50;;;8.50;99.90;;;;;;4953831;28;20196;-88
2022/04/24 08:10:41;;;;;;;0.98;0.85;;;8.50;99.90;;;;;;4959148;28;20207;-85
2022/04/24 08:13:08;;;;;;;0.65;0.63;;;8.50;99.90;;;;;;4965388;28;20181;-87
2022/04/24 08:15:35;;;;;;;0.77;0.60;;;8.50;99.90;;;;;;4947263;28;20207;-84
2022/04/24 08:18:01;;;;;;;1.15;0.60;;;8.60;99.90;;;;;;4949180;28;20760;-82
2022/04/24 08:20:28;;;;;;;0.68;0.40;;;8.60;99.90;;;;;;4950258;28;20796;-85
2022/04/24 08:22:55;;;;;;;1.85;0.70;;;8.60;99.90;;;;;;4950827;28;20192;-84
2022/04/24 08:25:22;;;;;;;0.60;0.57;;;8.70;99.90;;;;;;4952862;28;20184;-86
2022/04/24 08:27:49;;;;;;;0.70;0.50;;;8.70;99.90;;;;;;4950387;28;20208;-85
2022/04/24 08:30:16;;;;;;;0.50;0.50;;;8.70;99.90;;;;;;4952981;28;20215;-85
2022/04/24 08:32:42;;;;;;;0.65;0.50;;;8.80;99.90;;;;;;4958188;28;20192;-86
2022/04/24 08:35:10;;;;;;;0.68;0.50;;;8.80;99.90;;;;;;4991331;28;20176;-84
2022/04/24 08:37:38;;;;;;;0.80;0.60;;;8.80;99.90;;;;;;4971611;28;20263;-86
2022/04/24 08:40:05;;;;;;;2.05;0.40;;;8.90;99.90;;;;;;4956323;28;20188;-82
2022/04/24 08:42:33;;;;;;;0.88;0.50;;;8.80;99.90;;;;;;4954764;28;20244;-84
2022/04/24 08:44:59;;;;;;;0.50;0.40;;;10.80;99.90;;;;;;4949514;28;20469;-85
2022/04/24 08:47:25;;;;;;;0.70;0.50;;;8.80;99.90;;;;;;4954318;28;20228;-86
2022/04/24 08:49:58;;;;;;;0.75;0.50;;;8.80;99.90;;;;;;4969980;28;20554;-87
2022/04/24 08:52:25;;;;;;;1.30;0.40;;;8.80;99.90;;;;;;4956129;28;20657;-84
2022/04/24 08:54:51;;;;;;;0.40;0.40;;;8.80;99.90;;;;;;4972573;28;20216;-83
2022/04/24 08:57:18;;;;;;;0.70;0.70;;;8.80;99.90;;;;;;4973872;28;20713;-83
2022/04/24 08:59:45;;;;;;;1.55;0.65;;;8.70;99.90;;;;;;4975005;28;20215;-87
2022/04/24 09:02:11;;;;;;;0.50;0.50;;;8.70;99.90;;;;;;4963382;28;20203;-83
2022/04/24 09:04:38;;;;;;;0.70;0.55;;;8.70;99.90;;;;;;4954178;28;20196;-88
2022/04/24 09:07:09;;;;;;;0.80;0.65;;;8.70;99.90;;;;;;4946433;28;20203;-85
2022/04/24 09:09:43;;;;;;;0.85;0.85;;;8.70;99.90;;;;;;4949523;28;20343;-85
2022/04/24 09:12:09;;;;;;;0.50;0.47;;;8.70;99.90;;;;;;4960101;28;20208;-87
2022/04/24 09:14:35;;;;;;;1.10;0.40;;;8.80;99.90;;;;;;4957667;28;20192;-84
2022/04/24 09:17:05;;;;;;;5.67;0.60;;;8.80;99.90;;;;;;4954973;28;20192;-86
2022/04/24 09:19:30;;;;;;;0.98;0.52;;;8.80;99.90;;;;;;4949255;28;20470;-86
2022/04/24 09:22:07;;;;;;;0.50;0.50;;;8.90;99.90;;;;;;4952777;28;20188;-89
2022/04/24 09:24:55;;;;;;;0.50;0.50;;;8.90;99.90;;;;;;4950201;28;20227;-85
2022/04/24 09:27:32;;;;;;;2.05;0.47;;;8.90;99.90;;;;;;4948622;28;20848;-83
2022/04/24 09:30:01;;;;;;;1.42;1.08;;;8.90;99.90;;;;;;4949718;28;20727;-84
2022/04/24 09:32:31;;;;;;;1.00;0.70;;;9.00;99.90;;;;;;4950422;28;20181;-83
2022/04/24 09:34:58;;;;;;;3.20;0.98;;;9.00;99.90;;;;;;4944167;28;20189;-84
2022/04/24 09:37:24;;;;;;;0.90;0.50;;;9.00;99.90;;;;;;4952264;28;20184;-85
2022/04/24 09:39:52;;;;;;;2.05;0.60;;;9.00;99.90;;;;;;4960044;28;20192;-87
2022/04/24 09:42:20;;;;;;;0.68;0.68;;;9.00;99.90;;;;;;4962111;28;20183;-85
2022/04/24 09:44:51;;;;;;;0.45;0.38;;;9.00;99.90;;;;;;4948310;28;20188;-84
2022/04/24 09:47:18;;;;;;;0.50;0.40;;;9.00;99.90;;;;;;4964630;28;20196;-86
2022/04/24 09:49:46;;;;;;;0.50;0.50;;;9.00;99.90;;;;;;4946600;28;20208;-81
2022/04/24 09:52:15;;;;;;;0.80;0.60;;;9.10;99.90;;;;;;4948961;28;20184;-85
2022/04/24 09:54:45;;;;;;;0.52;0.50;;;9.20;99.90;;;;;;4949960;28;20192;-84
2022/04/24 09:57:13;;;;;;;0.98;0.60;;;9.40;99.90;;;;;;4948529;28;20185;-85
2022/04/24 09:59:41;;;;;;;0.50;0.30;;;9.30;99.90;;;;;;4967657;28;20198;-82
2022/04/24 10:02:08;;;;;;;0.75;0.45;;;9.40;99.90;;;;;;4973330;28;20193;-81
2022/04/24 10:04:35;;;;;;;0.68;0.60;;;9.40;99.90;;;;;;4956359;28;20200;-84
2022/04/24 10:07:09;;;;;;;0.45;0.40;;;9.40;99.90;;;;;;4944042;28;20193;-83
2022/04/24 10:09:44;;;;;;;1.00;0.50;;;9.30;99.90;;;;;;4945443;28;20220;-84
2022/04/24 10:12:16;;;;;;;0.50;0.50;;;9.30;99.90;;;;;;4942562;28;20188;-87
2022/04/24 10:14:52;;;;;;;1.08;0.60;;;9.30;99.90;;;;;;4941947;28;20277;-87
2022/04/24 10:17:32;;;;;;;2.00;0.50;;;9.30;99.90;;;;;;4947786;28;20673;-85
2022/04/24 10:20:36;;;;;;;1.40;0.60;;;10.40;99.90;;;;;;4963062;28;20223;-85
2022/04/24 10:23:02;;;;;;;2.25;0.60;;;9.20;99.90;;;;;;4948143;28;20202;-86
2022/04/24 10:25:38;;;;;;;0.70;0.63;;;9.10;99.90;;;;;;4946810;28;20185;-85
2022/04/24 10:28:11;;;;;;;1.75;0.73;;;9.20;99.90;;;;;;4949785;28;20204;-86
2022/04/24 10:30:37;;;;;;;1.50;0.50;;;9.10;99.90;;;;;;4947752;28;20204;-86
2022/04/24 10:33:18;;;;;;;0.90;0.53;;;9.30;99.90;;;;;;4942627;28;20195;-87
2022/04/24 10:35:49;;;;;;;0.50;0.50;;;9.50;99.90;;;;;;4948807;28;20243;-88
2022/04/24 10:38:17;;;;;;;0.60;0.40;;;9.60;99.90;;;;;;4945946;28;20980;-88
2022/04/24 10:40:55;;;;;;;1.67;0.70;;;9.70;99.90;;;;;;4950139;28;20196;-88
2022/04/24 10:43:21;;;;;;;0.98;0.47;;;9.70;99.90;;;;;;4946705;28;20219;-86
2022/04/24 10:45:47;;;;;;;0.90;0.40;;;9.50;99.90;;;;;;4946262;28;20809;-84
2022/04/24 10:48:14;;;;;;;0.80;0.50;;;9.40;99.90;;;;;;4948656;28;20196;-88
2022/04/24 10:50:52;;;;;;;0.50;0.50;;;9.40;99.90;;;;;;4944870;28;20731;-87
2022/04/24 10:53:18;;;;;;;1.13;0.57;;;9.40;99.90;;;;;;4947878;28;20195;-87
2022/04/24 10:55:44;;;;;;;0.50;0.45;;;9.40;99.90;;;;;;4946258;28;20188;-87
2022/04/24 10:58:10;;;;;;;1.30;0.83;;;9.40;99.90;;;;;;4961428;28;20223;-84
2022/04/24 11:00:38;;;;;;;0.60;0.60;;;9.40;99.90;;;;;;4973983;28;20184;-86
2022/04/24 11:03:07;;;;;;;0.60;0.50;;;9.30;99.90;;;;;;4974700;28;20176;-84
2022/04/24 11:05:36;;;;;;;0.60;0.60;;;9.30;99.90;;;;;;4967655;28;20197;-86
2022/04/24 11:08:04;;;;;;;0.65;0.65;;;9.20;99.90;;;;;;4950953;28;20845;-89
2022/04/24 11:10:37;;;;;;;1.13;0.75;;;9.30;99.90;;;;;;4952632;28;20299;-91
2022/04/24 11:13:02;;;;;;;0.68;0.50;;;9.20;99.90;;;;;;4951267;28;20263;-86
2022/04/24 11:15:28;;;;;;;0.50;0.50;;;;;;;;;;4950443;28;20256;-87
2022/04/24 11:17:54;;;;;;;1.30;0.70;;;9.40;99.90;;;;;;4951978;28;20217;-90
2022/04/24 11:20:20;;;;;;;0.90;0.60;;;;;;;;;;4961033;28;20185;-84
2022/04/24 11:22:50;;;;;;;1.20;0.50;;;9.70;99.90;;;;;;4958212;28;20188;-86
2022/04/24 11:25:20;;;;;;;1.00;0.60;;;9.70;99.90;;;;;;4949119;28;20187;-89
2022/04/24 11:27:54;;;;;;;0.40;0.40;;;9.70;99.90;;;;;;4959608;28;20204;-87
2022/04/24 11:30:23;;;;;;;0.55;0.55;;;9.70;99.90;;;;;;4949897;28;20220;-89
2022/04/24 11:33:05;;;;;;;0.50;0.40;;;9.90;99.90;;;;;;4942367;28;20188;-86
2022/04/24 11:35:32;;;;;;;0.70;0.70;;;10.10;99.90;;;;;;4960961;28;20198;-87
2022/04/24 11:37:57;;;;;;;3.50;0.50;;;12.50;99.90;;;;;;4943388;28;20207;-86
2022/04/24 11:40:23;;;;;;;0.50;0.50;;;10.40;99.90;;;;;;4942374;28;20181;-88
2022/04/24 11:42:49;;;;;;;1.47;0.90;;;10.50;99.90;;;;;;4947382;28;20272;-90
2022/04/24 11:50:52;;;;;;;4.93;4.43;;;11.00;99.90;;;;;;4949784;28;20517;-84
2022/04/24 11:53:22;;;;;;;0.80;0.80;;;11.20;99.90;;;;;;4951559;28;20176;-86
2022/04/24 11:56:01;;;;;;;0.60;0.57;;;10.90;99.90;;;;;;4943707;28;20576;-85
2022/04/24 11:58:35;;;;;;;0.90;0.88;;;10.60;99.90;;;;;;4948142;28;20212;-90
2022/04/24 12:01:02;;;;;;;1.00;0.90;;;10.60;99.90;;;;;;4969776;28;20846;-88
2022/04/24 12:03:32;;;;;;;0.65;0.65;;;10.80;99.90;;;;;;4959645;28;20185;-88
2022/04/24 12:06:06;;;;;;;0.80;0.60;;;12.30;99.90;;;;;;4951153;28;20858;-88
2022/04/24 12:08:48;;;;;;;1.10;0.80;;;10.80;99.90;;;;;;4949124;28;20227;-87
2022/04/24 12:11:25;;;;;;;0.65;0.60;;;10.60;99.90;;;;;;4950378;28;20192;-84
2022/04/24 12:14:07;;;;;;;0.70;0.65;;;10.30;99.90;;;;;;4952990;28;20188;-85
2022/04/24 12:16:35;;;;;;;0.70;0.60;;;10.30;99.90;;;;;;4952174;28;20188;-87
2022/04/24 12:19:01;;;;;;;3.00;0.88;;;10.30;99.90;;;;;;4938148;28;20224;-89
2022/04/24 12:21:28;;;;;;;1.45;0.50;;;10.20;99.90;;;;;;4950570;28;20271;-87
2022/04/24 12:23:55;;;;;;;1.00;0.90;;;10.30;99.90;;;;;;4952904;28;20199;-85
2022/04/24 12:26:21;;;;;;;1.98;0.82;;;10.20;99.90;;;;;;4951256;28;20571;-87
2022/04/24 12:28:48;;;;;;;0.52;0.38;;;10.10;99.90;;;;;;4952328;28;20220;-88
2022/04/24 12:31:19;;;;;;;0.50;0.40;;;9.90;99.90;;;;;;4946871;28;20184;-86
2022/04/24 12:33:47;;;;;;;1.45;0.57;;;10.00;99.90;;;;;;4963228;28;20198;-86
2022/04/24 12:36:13;;;;;;;2.58;0.75;;;9.90;99.90;;;;;;4944471;28;20212;-86
2022/04/24 12:38:55;;;;;;;2.33;0.90;;;10.20;99.90;;;;;;4957574;28;20373;-85
2022/04/24 12:41:26;;;;;;;1.55;0.80;;;10.10;99.90;;;;;;4978320;28;20188;-86
2022/04/24 12:44:00;;;;;;;0.82;0.65;;;10.00;99.90;;;;;;4960417;28;20192;-85
2022/04/24 12:46:25;;;;;;;0.95;0.80;;;9.90;99.90;;;;;;4958525;28;20219;-90
2022/04/24 12:48:54;;;;;;;0.70;0.70;;;9.90;99.90;;;;;;4942523;28;21859;-88
2022/04/24 12:51:23;;;;;;;2.20;1.80;;;10.00;99.90;;;;;;4948788;28;20664;-87
2022/04/24 12:53:50;;;;;;;0.70;0.63;;;10.00;99.90;;;;;;4946424;28;20191;-82
2022/04/24 12:56:16;;;;;;;0.40;0.30;;;;;;;;;;4957551;28;20242;-81
2022/04/24 12:58:42;;;;;;;3.53;1.05;;;10.40;99.90;;;;;;4958599;28;20208;-83
2022/04/24 13:01:12;;;;;;;3.60;0.68;;;10.10;99.90;;;;;;4940854;28;20188;-86
2022/04/24 13:03:39;;;;;;;2.15;0.80;;;9.90;99.90;;;;;;4948622;28;20189;-83